sensor_id;sensor_type;location;lat;lon;timestamp;P1;durP1;ratioP1;P2;durP2;ratioP2
3567;SDS011;1798;48.486;9.232;2022-11-14T00:02:09;14.83;;;9.43;;
3567;SDS011;1798;48.486;9.232;2022-11-14T00:04:35;14.40;;;10.13;;
3567;SDS011;1798;48.486;9.232;2022-11-14T00:07:02;13.80;;;9.30;;
3567;SDS011;1798;48.486;9.232;2022-11-14T00:09:30;16.37;;;10.40;;
3567;SDS011;1798;48.486;9.232;2022-11-14T00:11:57;13.90;;;8.60;;
3567;SDS011;1798;48.486;9.232;2022-11-14T00:14:23;15.60;;;9.70;;
3567;SDS011;1798;48.486;9.232;2022-11-14T00:16:50;15.73;;;10.60;;
3567;SDS011;1798;48.486;9.232;2022-11-14T00:19:17;14.30;;;9.53;;
3567;SDS011;1798;48.486;9.232;2022-11-14T00:21:43;17.40;;;10.53;;
3567;SDS011;1798;48.486;9.232;2022-11-14T00:24:10;16.70;;;10.43;;
3567;SDS011;1798;48.486;9.232;2022-11-14T00:26:38;15.03;;;9.43;;
3567;SDS011;1798;48.486;9.232;2022-11-14T00:29:05;17.20;;;10.00;;
3567;SDS011;1798;48.486;9.232;2022-11-14T00:31:32;16.10;;;10.70;;
3567;SDS011;1798;48.486;9.232;2022-11-14T00:33:58;14.33;;;9.23;;
3567;SDS011;1798;48.486;9.232;2022-11-14T00:36:25;16.83;;;11.50;;
3567;SDS011;1798;48.486;9.232;2022-11-14T00:38:52;16.23;;;9.80;;
3567;SDS011;1798;48.486;9.232;2022-11-14T00:41:19;16.10;;;10.23;;
3567;SDS011;1798;48.486;9.232;2022-11-14T00:43:47;14.17;;;8.97;;
3567;SDS011;1798;48.486;9.232;2022-11-14T00:46:14;17.30;;;10.60;;
3567;SDS011;1798;48.486;9.232;2022-11-14T00:48:41;17.73;;;9.60;;
3567;SDS011;1798;48.486;9.232;2022-11-14T00:51:08;16.87;;;10.40;;
3567;SDS011;1798;48.486;9.232;2022-11-14T00:53:35;17.10;;;9.03;;
3567;SDS011;1798;48.486;9.232;2022-11-14T00:56:02;11.90;;;8.57;;
3567;SDS011;1798;48.486;9.232;2022-11-14T00:58:29;17.70;;;10.30;;
3567;SDS011;1798;48.486;9.232;2022-11-14T01:00:57;26.93;;;11.70;;
3567;SDS011;1798;48.486;9.232;2022-11-14T01:03:24;16.13;;;10.60;;
3567;SDS011;1798;48.486;9.232;2022-11-14T01:05:51;17.03;;;10.33;;
3567;SDS011;1798;48.486;9.232;2022-11-14T01:08:18;14.57;;;9.23;;
3567;SDS011;1798;48.486;9.232;2022-11-14T01:10:45;19.00;;;9.70;;
3567;SDS011;1798;48.486;9.232;2022-11-14T01:13:14;15.00;;;9.70;;
3567;SDS011;1798;48.486;9.232;2022-11-14T01:15:42;14.13;;;8.77;;
3567;SDS011;1798;48.486;9.232;2022-11-14T01:18:13;16.00;;;9.83;;
3567;SDS011;1798;48.486;9.232;2022-11-14T01:20:42;15.07;;;10.17;;
3567;SDS011;1798;48.486;9.232;2022-11-14T01:23:10;17.80;;;11.37;;
3567;SDS011;1798;48.486;9.232;2022-11-14T01:25:38;17.10;;;10.50;;
3567;SDS011;1798;48.486;9.232;2022-11-14T01:28:07;16.40;;;10.37;;
3567;SDS011;1798;48.486;9.232;2022-11-14T01:30:35;12.80;;;8.47;;
3567;SDS011;1798;48.486;9.232;2022-11-14T01:33:02;16.10;;;9.23;;
3567;SDS011;1798;48.486;9.232;2022-11-14T01:35:31;16.03;;;9.20;;
3567;SDS011;1798;48.486;9.232;2022-11-14T01:37:58;13.80;;;9.77;;
3567;SDS011;1798;48.486;9.232;2022-11-14T01:40:25;15.30;;;10.00;;
3567;SDS011;1798;48.486;9.232;2022-11-14T01:45:50;13.33;;;9.63;;
3567;SDS011;1798;48.486;9.232;2022-11-14T01:48:19;16.57;;;10.70;;
3567;SDS011;1798;48.486;9.232;2022-11-14T01:50:49;16.17;;;8.80;;
3567;SDS011;1798;48.486;9.232;2022-11-14T01:53:19;15.90;;;9.50;;
3567;SDS011;1798;48.486;9.232;2022-11-14T01:55:46;14.83;;;9.67;;
3567;SDS011;1798;48.486;9.232;2022-11-14T01:58:13;16.67;;;10.87;;
3567;SDS011;1798;48.486;9.232;2022-11-14T02:00:41;16.13;;;10.00;;
3567;SDS011;1798;48.486;9.232;2022-11-14T02:03:08;14.83;;;9.50;;
3567;SDS011;1798;48.486;9.232;2022-11-14T02:05:36;15.33;;;8.83;;
3567;SDS011;1798;48.486;9.232;2022-11-14T02:08:04;11.53;;;8.53;;
3567;SDS011;1798;48.486;9.232;2022-11-14T02:10:31;14.83;;;8.37;;
3567;SDS011;1798;48.486;9.232;2022-11-14T02:12:58;14.07;;;9.67;;
3567;SDS011;1798;48.486;9.232;2022-11-14T02:15:25;14.90;;;8.93;;
3567;SDS011;1798;48.486;9.232;2022-11-14T02:17:52;12.80;;;8.70;;
3567;SDS011;1798;48.486;9.232;2022-11-14T02:20:22;12.23;;;8.13;;
3567;SDS011;1798;48.486;9.232;2022-11-14T02:22:52;12.87;;;8.40;;
3567;SDS011;1798;48.486;9.232;2022-11-14T02:25:19;13.83;;;9.67;;
3567;SDS011;1798;48.486;9.232;2022-11-14T02:27:46;14.63;;;8.80;;
3567;SDS011;1798;48.486;9.232;2022-11-14T02:30:14;11.50;;;8.30;;
3567;SDS011;1798;48.486;9.232;2022-11-14T02:32:42;12.23;;;8.10;;
3567;SDS011;1798;48.486;9.232;2022-11-14T02:35:09;12.70;;;8.80;;
3567;SDS011;1798;48.486;9.232;2022-11-14T02:37:37;18.67;;;8.03;;
3567;SDS011;1798;48.486;9.232;2022-11-14T02:40:06;15.87;;;10.03;;
3567;SDS011;1798;48.486;9.232;2022-11-14T02:42:33;11.23;;;8.20;;
3567;SDS011;1798;48.486;9.232;2022-11-14T02:45:00;11.10;;;7.73;;
3567;SDS011;1798;48.486;9.232;2022-11-14T02:47:27;10.90;;;7.77;;
3567;SDS011;1798;48.486;9.232;2022-11-14T02:49:54;12.70;;;8.30;;
3567;SDS011;1798;48.486;9.232;2022-11-14T02:52:20;18.70;;;11.83;;
3567;SDS011;1798;48.486;9.232;2022-11-14T02:54:48;13.10;;;8.33;;
3567;SDS011;1798;48.486;9.232;2022-11-14T02:57:15;13.87;;;9.30;;
3567;SDS011;1798;48.486;9.232;2022-11-14T02:59:42;14.60;;;9.90;;
3567;SDS011;1798;48.486;9.232;2022-11-14T03:02:08;13.93;;;9.47;;
3567;SDS011;1798;48.486;9.232;2022-11-14T03:04:35;15.57;;;8.73;;
3567;SDS011;1798;48.486;9.232;2022-11-14T03:07:02;15.07;;;8.57;;
3567;SDS011;1798;48.486;9.232;2022-11-14T03:09:28;14.20;;;9.10;;
3567;SDS011;1798;48.486;9.232;2022-11-14T03:11:57;15.77;;;8.43;;
3567;SDS011;1798;48.486;9.232;2022-11-14T03:14:23;12.57;;;8.40;;
3567;SDS011;1798;48.486;9.232;2022-11-14T03:16:50;11.37;;;7.40;;
3567;SDS011;1798;48.486;9.232;2022-11-14T03:19:19;14.07;;;7.57;;
3567;SDS011;1798;48.486;9.232;2022-11-14T03:21:46;12.70;;;7.47;;
3567;SDS011;1798;48.486;9.232;2022-11-14T03:24:13;10.13;;;7.13;;
3567;SDS011;1798;48.486;9.232;2022-11-14T03:26:40;10.63;;;6.90;;
3567;SDS011;1798;48.486;9.232;2022-11-14T03:29:08;13.37;;;7.67;;
3567;SDS011;1798;48.486;9.232;2022-11-14T03:31:35;11.30;;;7.40;;
3567;SDS011;1798;48.486;9.232;2022-11-14T03:34:02;10.97;;;7.97;;
3567;SDS011;1798;48.486;9.232;2022-11-14T03:36:28;9.73;;;7.50;;
3567;SDS011;1798;48.486;9.232;2022-11-14T03:38:55;14.03;;;7.83;;
3567;SDS011;1798;48.486;9.232;2022-11-14T03:41:22;9.67;;;6.90;;
3567;SDS011;1798;48.486;9.232;2022-11-14T03:43:48;9.77;;;6.73;;
3567;SDS011;1798;48.486;9.232;2022-11-14T03:46:16;11.90;;;7.90;;
3567;SDS011;1798;48.486;9.232;2022-11-14T03:48:43;10.30;;;7.23;;
3567;SDS011;1798;48.486;9.232;2022-11-14T03:51:10;12.50;;;8.67;;
3567;SDS011;1798;48.486;9.232;2022-11-14T03:53:37;13.10;;;9.00;;
3567;SDS011;1798;48.486;9.232;2022-11-14T03:56:03;15.17;;;10.13;;
3567;SDS011;1798;48.486;9.232;2022-11-14T03:58:30;14.67;;;9.13;;
3567;SDS011;1798;48.486;9.232;2022-11-14T04:00:57;13.37;;;9.80;;
3567;SDS011;1798;48.486;9.232;2022-11-14T04:03:25;14.63;;;8.50;;
3567;SDS011;1798;48.486;9.232;2022-11-14T04:05:52;13.00;;;8.77;;
3567;SDS011;1798;48.486;9.232;2022-11-14T04:08:18;13.70;;;8.73;;
3567;SDS011;1798;48.486;9.232;2022-11-14T04:10:45;16.17;;;9.80;;
3567;SDS011;1798;48.486;9.232;2022-11-14T04:13:12;13.97;;;9.13;;
3567;SDS011;1798;48.486;9.232;2022-11-14T04:15:39;13.83;;;8.80;;
3567;SDS011;1798;48.486;9.232;2022-11-14T04:18:06;15.93;;;9.50;;
3567;SDS011;1798;48.486;9.232;2022-11-14T04:20:34;14.23;;;8.60;;
3567;SDS011;1798;48.486;9.232;2022-11-14T04:23:01;18.93;;;8.70;;
3567;SDS011;1798;48.486;9.232;2022-11-14T04:25:27;12.50;;;9.30;;
3567;SDS011;1798;48.486;9.232;2022-11-14T04:27:54;10.30;;;7.40;;
3567;SDS011;1798;48.486;9.232;2022-11-14T04:30:21;16.07;;;10.37;;
3567;SDS011;1798;48.486;9.232;2022-11-14T04:32:47;12.47;;;8.37;;
3567;SDS011;1798;48.486;9.232;2022-11-14T04:35:14;14.80;;;9.90;;
3567;SDS011;1798;48.486;9.232;2022-11-14T04:37:42;14.70;;;9.53;;
3567;SDS011;1798;48.486;9.232;2022-11-14T04:40:09;15.13;;;9.47;;
3567;SDS011;1798;48.486;9.232;2022-11-14T04:42:36;16.13;;;10.13;;
3567;SDS011;1798;48.486;9.232;2022-11-14T04:45:03;14.80;;;9.73;;
3567;SDS011;1798;48.486;9.232;2022-11-14T04:47:31;15.60;;;9.77;;
3567;SDS011;1798;48.486;9.232;2022-11-14T04:49:58;17.40;;;10.67;;
3567;SDS011;1798;48.486;9.232;2022-11-14T04:52:25;15.30;;;10.77;;
3567;SDS011;1798;48.486;9.232;2022-11-14T04:54:53;16.73;;;10.47;;
3567;SDS011;1798;48.486;9.232;2022-11-14T04:57:20;14.00;;;9.47;;
3567;SDS011;1798;48.486;9.232;2022-11-14T04:59:46;15.80;;;9.80;;
3567;SDS011;1798;48.486;9.232;2022-11-14T05:02:13;17.70;;;11.90;;
3567;SDS011;1798;48.486;9.232;2022-11-14T05:04:40;13.70;;;9.43;;
3567;SDS011;1798;48.486;9.232;2022-11-14T05:07:08;17.17;;;10.03;;
3567;SDS011;1798;48.486;9.232;2022-11-14T05:09:35;20.50;;;11.47;;
3567;SDS011;1798;48.486;9.232;2022-11-14T05:12:03;18.63;;;11.93;;
3567;SDS011;1798;48.486;9.232;2022-11-14T05:14:31;11.57;;;8.53;;
3567;SDS011;1798;48.486;9.232;2022-11-14T05:16:57;12.67;;;8.23;;
3567;SDS011;1798;48.486;9.232;2022-11-14T05:19:25;19.07;;;11.57;;
3567;SDS011;1798;48.486;9.232;2022-11-14T05:21:52;19.60;;;11.67;;
3567;SDS011;1798;48.486;9.232;2022-11-14T05:24:19;18.63;;;12.00;;
3567;SDS011;1798;48.486;9.232;2022-11-14T05:26:45;19.27;;;11.27;;
3567;SDS011;1798;48.486;9.232;2022-11-14T05:29:13;19.63;;;13.10;;
3567;SDS011;1798;48.486;9.232;2022-11-14T05:31:40;16.93;;;11.93;;
3567;SDS011;1798;48.486;9.232;2022-11-14T05:34:07;28.43;;;12.80;;
3567;SDS011;1798;48.486;9.232;2022-11-14T05:36:33;10.00;;;7.40;;
3567;SDS011;1798;48.486;9.232;2022-11-14T05:39:00;19.53;;;12.93;;
3567;SDS011;1798;48.486;9.232;2022-11-14T05:41:26;21.77;;;13.60;;
3567;SDS011;1798;48.486;9.232;2022-11-14T05:43:53;21.00;;;12.90;;
3567;SDS011;1798;48.486;9.232;2022-11-14T05:46:21;17.17;;;11.43;;
3567;SDS011;1798;48.486;9.232;2022-11-14T05:48:48;18.97;;;12.00;;
3567;SDS011;1798;48.486;9.232;2022-11-14T05:51:14;20.87;;;12.00;;
3567;SDS011;1798;48.486;9.232;2022-11-14T05:53:41;19.83;;;11.47;;
3567;SDS011;1798;48.486;9.232;2022-11-14T05:56:09;19.80;;;12.80;;
3567;SDS011;1798;48.486;9.232;2022-11-14T05:58:36;11.43;;;8.30;;
3567;SDS011;1798;48.486;9.232;2022-11-14T06:01:04;11.03;;;7.70;;
3567;SDS011;1798;48.486;9.232;2022-11-14T06:03:33;24.23;;;13.60;;
3567;SDS011;1798;48.486;9.232;2022-11-14T06:06:01;13.47;;;9.27;;
3567;SDS011;1798;48.486;9.232;2022-11-14T06:08:27;14.83;;;9.17;;
3567;SDS011;1798;48.486;9.232;2022-11-14T06:10:54;15.83;;;9.40;;
3567;SDS011;1798;48.486;9.232;2022-11-14T06:13:22;21.77;;;12.27;;
3567;SDS011;1798;48.486;9.232;2022-11-14T06:15:49;23.23;;;13.73;;
3567;SDS011;1798;48.486;9.232;2022-11-14T06:18:16;15.27;;;10.67;;
3567;SDS011;1798;48.486;9.232;2022-11-14T06:20:44;20.20;;;12.43;;
3567;SDS011;1798;48.486;9.232;2022-11-14T06:23:11;20.70;;;12.70;;
3567;SDS011;1798;48.486;9.232;2022-11-14T06:25:38;15.27;;;9.23;;
3567;SDS011;1798;48.486;9.232;2022-11-14T06:28:05;18.97;;;12.70;;
3567;SDS011;1798;48.486;9.232;2022-11-14T06:30:31;12.93;;;8.60;;
3567;SDS011;1798;48.486;9.232;2022-11-14T06:32:58;16.10;;;10.70;;
3567;SDS011;1798;48.486;9.232;2022-11-14T06:35:25;16.80;;;9.63;;
3567;SDS011;1798;48.486;9.232;2022-11-14T06:37:53;15.47;;;9.80;;
3567;SDS011;1798;48.486;9.232;2022-11-14T06:40:20;16.00;;;10.13;;
3567;SDS011;1798;48.486;9.232;2022-11-14T06:42:47;15.73;;;10.60;;
3567;SDS011;1798;48.486;9.232;2022-11-14T06:45:13;12.50;;;8.03;;
3567;SDS011;1798;48.486;9.232;2022-11-14T06:47:40;21.47;;;9.90;;
3567;SDS011;1798;48.486;9.232;2022-11-14T06:50:07;14.00;;;9.27;;
3567;SDS011;1798;48.486;9.232;2022-11-14T06:52:34;19.17;;;9.83;;
3567;SDS011;1798;48.486;9.232;2022-11-14T06:55:02;15.83;;;10.27;;
3567;SDS011;1798;48.486;9.232;2022-11-14T06:57:30;14.70;;;10.40;;
3567;SDS011;1798;48.486;9.232;2022-11-14T06:59:56;11.37;;;8.30;;
3567;SDS011;1798;48.486;9.232;2022-11-14T07:02:23;14.70;;;10.07;;
3567;SDS011;1798;48.486;9.232;2022-11-14T07:04:50;15.10;;;9.53;;
3567;SDS011;1798;48.486;9.232;2022-11-14T07:07:16;18.77;;;11.40;;
3567;SDS011;1798;48.486;9.232;2022-11-14T07:09:43;10.97;;;7.73;;
3567;SDS011;1798;48.486;9.232;2022-11-14T07:12:11;12.27;;;8.93;;
3567;SDS011;1798;48.486;9.232;2022-11-14T07:14:38;16.20;;;10.20;;
3567;SDS011;1798;48.486;9.232;2022-11-14T07:17:04;16.30;;;10.37;;
3567;SDS011;1798;48.486;9.232;2022-11-14T07:19:31;14.27;;;8.77;;
3567;SDS011;1798;48.486;9.232;2022-11-14T07:21:58;12.73;;;7.70;;
3567;SDS011;1798;48.486;9.232;2022-11-14T07:24:25;14.50;;;9.70;;
3567;SDS011;1798;48.486;9.232;2022-11-14T07:26:51;18.17;;;9.80;;
3567;SDS011;1798;48.486;9.232;2022-11-14T07:29:19;22.90;;;9.63;;
3567;SDS011;1798;48.486;9.232;2022-11-14T07:31:46;11.70;;;8.30;;
3567;SDS011;1798;48.486;9.232;2022-11-14T07:34:13;14.27;;;9.87;;
3567;SDS011;1798;48.486;9.232;2022-11-14T07:36:40;11.30;;;7.60;;
3567;SDS011;1798;48.486;9.232;2022-11-14T07:39:07;11.50;;;7.57;;
3567;SDS011;1798;48.486;9.232;2022-11-14T07:41:33;13.30;;;5.73;;
3567;SDS011;1798;48.486;9.232;2022-11-14T07:44:00;10.60;;;6.50;;
3567;SDS011;1798;48.486;9.232;2022-11-14T07:46:28;11.90;;;7.60;;
3567;SDS011;1798;48.486;9.232;2022-11-14T07:48:55;10.40;;;7.50;;
3567;SDS011;1798;48.486;9.232;2022-11-14T07:51:21;12.03;;;6.73;;
3567;SDS011;1798;48.486;9.232;2022-11-14T07:53:50;10.70;;;6.03;;
3567;SDS011;1798;48.486;9.232;2022-11-14T07:56:17;9.03;;;6.13;;
3567;SDS011;1798;48.486;9.232;2022-11-14T07:58:44;9.20;;;5.80;;
3567;SDS011;1798;48.486;9.232;2022-11-14T08:01:11;7.93;;;5.30;;
3567;SDS011;1798;48.486;9.232;2022-11-14T08:03:40;11.00;;;5.00;;
3567;SDS011;1798;48.486;9.232;2022-11-14T08:06:08;8.03;;;4.93;;
3567;SDS011;1798;48.486;9.232;2022-11-14T08:08:36;9.20;;;5.40;;
3567;SDS011;1798;48.486;9.232;2022-11-14T08:11:03;6.97;;;4.87;;
3567;SDS011;1798;48.486;9.232;2022-11-14T08:13:30;6.93;;;4.10;;
3567;SDS011;1798;48.486;9.232;2022-11-14T08:15:57;7.07;;;3.97;;
3567;SDS011;1798;48.486;9.232;2022-11-14T08:18:25;6.10;;;4.20;;
3567;SDS011;1798;48.486;9.232;2022-11-14T08:20:53;12.13;;;5.27;;
3567;SDS011;1798;48.486;9.232;2022-11-14T08:23:24;8.70;;;4.47;;
3567;SDS011;1798;48.486;9.232;2022-11-14T08:25:51;11.40;;;5.70;;
3567;SDS011;1798;48.486;9.232;2022-11-14T08:28:18;13.87;;;5.50;;
3567;SDS011;1798;48.486;9.232;2022-11-14T08:30:45;9.17;;;4.77;;
3567;SDS011;1798;48.486;9.232;2022-11-14T08:33:11;9.60;;;5.67;;
3567;SDS011;1798;48.486;9.232;2022-11-14T08:35:38;16.20;;;4.40;;
3567;SDS011;1798;48.486;9.232;2022-11-14T08:38:06;7.27;;;4.97;;
3567;SDS011;1798;48.486;9.232;2022-11-14T08:40:33;8.37;;;5.00;;
3567;SDS011;1798;48.486;9.232;2022-11-14T08:43:00;10.87;;;5.63;;
3567;SDS011;1798;48.486;9.232;2022-11-14T08:45:27;10.33;;;5.73;;
3567;SDS011;1798;48.486;9.232;2022-11-14T08:47:53;7.87;;;4.70;;
3567;SDS011;1798;48.486;9.232;2022-11-14T08:50:20;9.83;;;4.30;;
3567;SDS011;1798;48.486;9.232;2022-11-14T08:52:50;8.13;;;4.57;;
3567;SDS011;1798;48.486;9.232;2022-11-14T08:55:19;7.33;;;4.73;;
3567;SDS011;1798;48.486;9.232;2022-11-14T08:57:46;8.93;;;4.77;;
3567;SDS011;1798;48.486;9.232;2022-11-14T09:00:13;9.43;;;4.90;;
3567;SDS011;1798;48.486;9.232;2022-11-14T09:02:41;6.57;;;4.43;;
3567;SDS011;1798;48.486;9.232;2022-11-14T09:05:07;7.57;;;4.13;;
3567;SDS011;1798;48.486;9.232;2022-11-14T09:07:35;6.20;;;3.67;;
3567;SDS011;1798;48.486;9.232;2022-11-14T09:10:02;10.03;;;4.73;;
3567;SDS011;1798;48.486;9.232;2022-11-14T09:12:30;9.87;;;4.30;;
3567;SDS011;1798;48.486;9.232;2022-11-14T09:14:57;6.10;;;4.23;;
3567;SDS011;1798;48.486;9.232;2022-11-14T09:17:24;11.03;;;3.60;;
3567;SDS011;1798;48.486;9.232;2022-11-14T09:19:50;6.07;;;4.27;;
3567;SDS011;1798;48.486;9.232;2022-11-14T09:22:17;8.60;;;4.57;;
3567;SDS011;1798;48.486;9.232;2022-11-14T09:24:44;7.30;;;4.20;;
3567;SDS011;1798;48.486;9.232;2022-11-14T09:27:13;9.83;;;3.90;;
3567;SDS011;1798;48.486;9.232;2022-11-14T09:29:41;6.10;;;3.90;;
3567;SDS011;1798;48.486;9.232;2022-11-14T09:32:08;6.37;;;3.83;;
3567;SDS011;1798;48.486;9.232;2022-11-14T09:34:35;5.47;;;3.67;;
3567;SDS011;1798;48.486;9.232;2022-11-14T09:37:06;6.23;;;3.90;;
3567;SDS011;1798;48.486;9.232;2022-11-14T09:39:33;7.77;;;3.23;;
3567;SDS011;1798;48.486;9.232;2022-11-14T09:42:09;9.33;;;3.70;;
3567;SDS011;1798;48.486;9.232;2022-11-14T09:44:55;8.17;;;4.17;;
3567;SDS011;1798;48.486;9.232;2022-11-14T09:47:23;6.27;;;3.90;;
3567;SDS011;1798;48.486;9.232;2022-11-14T09:49:53;6.13;;;4.10;;
3567;SDS011;1798;48.486;9.232;2022-11-14T09:52:25;7.10;;;4.00;;
3567;SDS011;1798;48.486;9.232;2022-11-14T09:54:54;8.37;;;3.63;;
3567;SDS011;1798;48.486;9.232;2022-11-14T09:57:22;6.53;;;4.37;;
3567;SDS011;1798;48.486;9.232;2022-11-14T09:59:49;6.07;;;3.90;;
3567;SDS011;1798;48.486;9.232;2022-11-14T10:02:22;9.33;;;4.63;;
3567;SDS011;1798;48.486;9.232;2022-11-14T10:05:00;6.93;;;3.87;;
3567;SDS011;1798;48.486;9.232;2022-11-14T10:07:37;7.20;;;3.43;;
3567;SDS011;1798;48.486;9.232;2022-11-14T10:10:14;6.40;;;3.67;;
3567;SDS011;1798;48.486;9.232;2022-11-14T10:12:48;8.57;;;3.97;;
3567;SDS011;1798;48.486;9.232;2022-11-14T10:15:21;6.77;;;3.90;;
3567;SDS011;1798;48.486;9.232;2022-11-14T10:17:55;6.43;;;4.03;;
3567;SDS011;1798;48.486;9.232;2022-11-14T10:20:29;7.83;;;3.77;;
3567;SDS011;1798;48.486;9.232;2022-11-14T10:25:50;13.17;;;3.60;;
3567;SDS011;1798;48.486;9.232;2022-11-14T10:28:27;8.73;;;4.60;;
3567;SDS011;1798;48.486;9.232;2022-11-14T10:31:01;6.50;;;4.20;;
3567;SDS011;1798;48.486;9.232;2022-11-14T10:33:45;6.80;;;3.67;;
3567;SDS011;1798;48.486;9.232;2022-11-14T10:36:19;6.53;;;4.33;;
3567;SDS011;1798;48.486;9.232;2022-11-14T10:38:53;5.40;;;3.17;;
3567;SDS011;1798;48.486;9.232;2022-11-14T10:41:24;6.80;;;4.27;;
3567;SDS011;1798;48.486;9.232;2022-11-14T10:43:51;9.53;;;4.30;;
3567;SDS011;1798;48.486;9.232;2022-11-14T10:46:20;5.87;;;3.97;;
3567;SDS011;1798;48.486;9.232;2022-11-14T10:48:50;8.27;;;4.23;;
3567;SDS011;1798;48.486;9.232;2022-11-14T10:51:19;8.03;;;4.03;;
3567;SDS011;1798;48.486;9.232;2022-11-14T10:53:51;8.37;;;4.00;;
3567;SDS011;1798;48.486;9.232;2022-11-14T10:56:20;6.40;;;3.97;;
3567;SDS011;1798;48.486;9.232;2022-11-14T10:58:47;6.37;;;4.47;;
3567;SDS011;1798;48.486;9.232;2022-11-14T11:01:36;7.77;;;4.50;;
3567;SDS011;1798;48.486;9.232;2022-11-14T11:04:12;5.70;;;3.60;;
3567;SDS011;1798;48.486;9.232;2022-11-14T11:06:43;6.23;;;3.80;;
3567;SDS011;1798;48.486;9.232;2022-11-14T11:09:12;7.13;;;4.53;;
3567;SDS011;1798;48.486;9.232;2022-11-14T11:11:57;6.40;;;4.07;;
3567;SDS011;1798;48.486;9.232;2022-11-14T11:14:25;6.60;;;4.00;;
3567;SDS011;1798;48.486;9.232;2022-11-14T11:17:06;6.03;;;4.20;;
3567;SDS011;1798;48.486;9.232;2022-11-14T11:19:35;20.77;;;4.97;;
3567;SDS011;1798;48.486;9.232;2022-11-14T11:22:02;7.90;;;3.93;;
3567;SDS011;1798;48.486;9.232;2022-11-14T11:24:30;8.53;;;4.07;;
3567;SDS011;1798;48.486;9.232;2022-11-14T11:27:17;6.60;;;3.70;;
3567;SDS011;1798;48.486;9.232;2022-11-14T11:29:48;7.00;;;4.67;;
3567;SDS011;1798;48.486;9.232;2022-11-14T11:32:26;8.33;;;4.97;;
3567;SDS011;1798;48.486;9.232;2022-11-14T11:34:55;7.17;;;4.47;;
3567;SDS011;1798;48.486;9.232;2022-11-14T11:37:23;7.80;;;4.80;;
3567;SDS011;1798;48.486;9.232;2022-11-14T11:39:52;7.50;;;5.27;;
3567;SDS011;1798;48.486;9.232;2022-11-14T11:42:21;5.80;;;4.30;;
3567;SDS011;1798;48.486;9.232;2022-11-14T11:44:52;6.43;;;4.30;;
3567;SDS011;1798;48.486;9.232;2022-11-14T11:47:23;8.20;;;5.07;;
3567;SDS011;1798;48.486;9.232;2022-11-14T11:49:51;7.73;;;4.83;;
3567;SDS011;1798;48.486;9.232;2022-11-14T11:52:22;8.30;;;5.40;;
3567;SDS011;1798;48.486;9.232;2022-11-14T11:54:55;7.03;;;4.30;;
3567;SDS011;1798;48.486;9.232;2022-11-14T11:57:27;6.73;;;4.47;;
3567;SDS011;1798;48.486;9.232;2022-11-14T11:59:58;5.90;;;3.90;;
3567;SDS011;1798;48.486;9.232;2022-11-14T12:02:29;8.33;;;4.17;;
3567;SDS011;1798;48.486;9.232;2022-11-14T12:04:55;6.53;;;4.47;;
3567;SDS011;1798;48.486;9.232;2022-11-14T12:07:28;6.93;;;4.37;;
3567;SDS011;1798;48.486;9.232;2022-11-14T12:10:01;7.90;;;4.73;;
3567;SDS011;1798;48.486;9.232;2022-11-14T12:12:34;7.93;;;4.23;;
3567;SDS011;1798;48.486;9.232;2022-11-14T12:15:13;6.67;;;4.50;;
3567;SDS011;1798;48.486;9.232;2022-11-14T12:20:46;15.03;;;4.27;;
3567;SDS011;1798;48.486;9.232;2022-11-14T12:23:36;6.17;;;3.90;;
3567;SDS011;1798;48.486;9.232;2022-11-14T12:26:21;7.53;;;4.70;;
3567;SDS011;1798;48.486;9.232;2022-11-14T12:28:58;16.43;;;5.00;;
3567;SDS011;1798;48.486;9.232;2022-11-14T12:31:45;12.43;;;4.10;;
3567;SDS011;1798;48.486;9.232;2022-11-14T12:34:13;7.47;;;4.40;;
3567;SDS011;1798;48.486;9.232;2022-11-14T12:36:44;7.87;;;4.93;;
3567;SDS011;1798;48.486;9.232;2022-11-14T12:39:21;7.50;;;4.40;;
3567;SDS011;1798;48.486;9.232;2022-11-14T12:41:50;10.40;;;4.97;;
3567;SDS011;1798;48.486;9.232;2022-11-14T12:44:35;12.67;;;4.80;;
3567;SDS011;1798;48.486;9.232;2022-11-14T12:47:17;9.10;;;4.73;;
3567;SDS011;1798;48.486;9.232;2022-11-14T12:49:58;6.43;;;4.13;;
3567;SDS011;1798;48.486;9.232;2022-11-14T12:52:46;5.90;;;3.80;;
3567;SDS011;1798;48.486;9.232;2022-11-14T12:58:24;12.13;;;4.60;;
3567;SDS011;1798;48.486;9.232;2022-11-14T13:01:01;7.13;;;3.87;;
3567;SDS011;1798;48.486;9.232;2022-11-14T13:03:36;5.10;;;3.47;;
3567;SDS011;1798;48.486;9.232;2022-11-14T13:06:11;4.93;;;3.43;;
3567;SDS011;1798;48.486;9.232;2022-11-14T13:11:48;9.17;;;4.30;;
3567;SDS011;1798;48.486;9.232;2022-11-14T13:14:46;7.80;;;4.80;;
3567;SDS011;1798;48.486;9.232;2022-11-14T13:17:31;6.07;;;4.10;;
3567;SDS011;1798;48.486;9.232;2022-11-14T13:20:30;7.67;;;5.00;;
3567;SDS011;1798;48.486;9.232;2022-11-14T13:26:45;6.07;;;4.03;;
3567;SDS011;1798;48.486;9.232;2022-11-14T13:38:30;8.80;;;4.33;;
3567;SDS011;1798;48.486;9.232;2022-11-14T13:41:14;5.50;;;3.90;;
3567;SDS011;1798;48.486;9.232;2022-11-14T13:44:05;11.47;;;5.13;;
3567;SDS011;1798;48.486;9.232;2022-11-14T13:46:43;7.40;;;4.70;;
3567;SDS011;1798;48.486;9.232;2022-11-14T13:49:22;6.50;;;3.87;;
3567;SDS011;1798;48.486;9.232;2022-11-14T13:51:57;11.93;;;5.70;;
3567;SDS011;1798;48.486;9.232;2022-11-14T13:54:24;8.80;;;4.50;;
3567;SDS011;1798;48.486;9.232;2022-11-14T13:56:55;6.33;;;3.60;;
3567;SDS011;1798;48.486;9.232;2022-11-14T13:59:31;7.67;;;4.77;;
3567;SDS011;1798;48.486;9.232;2022-11-14T14:05:18;14.03;;;5.13;;
3567;SDS011;1798;48.486;9.232;2022-11-14T14:07:56;6.10;;;4.27;;
3567;SDS011;1798;48.486;9.232;2022-11-14T14:10:29;8.70;;;4.83;;
3567;SDS011;1798;48.486;9.232;2022-11-14T14:13:03;6.87;;;4.00;;
3567;SDS011;1798;48.486;9.232;2022-11-14T14:15:40;8.17;;;5.50;;
3567;SDS011;1798;48.486;9.232;2022-11-14T14:18:12;6.03;;;3.50;;
3567;SDS011;1798;48.486;9.232;2022-11-14T14:20:47;11.87;;;4.63;;
3567;SDS011;1798;48.486;9.232;2022-11-14T14:23:20;6.90;;;4.20;;
3567;SDS011;1798;48.486;9.232;2022-11-14T14:25:54;7.13;;;4.23;;
3567;SDS011;1798;48.486;9.232;2022-11-14T14:28:28;7.07;;;4.10;;
3567;SDS011;1798;48.486;9.232;2022-11-14T14:31:03;6.60;;;3.93;;
3567;SDS011;1798;48.486;9.232;2022-11-14T14:33:39;14.90;;;5.37;;
3567;SDS011;1798;48.486;9.232;2022-11-14T14:36:15;5.80;;;4.23;;
3567;SDS011;1798;48.486;9.232;2022-11-14T14:39:05;8.60;;;4.50;;
3567;SDS011;1798;48.486;9.232;2022-11-14T14:41:38;14.20;;;4.43;;
3567;SDS011;1798;48.486;9.232;2022-11-14T14:44:04;12.33;;;4.30;;
3567;SDS011;1798;48.486;9.232;2022-11-14T14:46:33;14.80;;;4.87;;
3567;SDS011;1798;48.486;9.232;2022-11-14T14:49:01;6.07;;;3.60;;
3567;SDS011;1798;48.486;9.232;2022-11-14T14:51:29;19.90;;;4.50;;
3567;SDS011;1798;48.486;9.232;2022-11-14T14:53:57;11.53;;;4.10;;
3567;SDS011;1798;48.486;9.232;2022-11-14T14:56:26;13.23;;;4.43;;
3567;SDS011;1798;48.486;9.232;2022-11-14T14:58:53;10.33;;;3.97;;
3567;SDS011;1798;48.486;9.232;2022-11-14T15:01:21;13.13;;;4.50;;
3567;SDS011;1798;48.486;9.232;2022-11-14T15:04:00;7.17;;;4.53;;
3567;SDS011;1798;48.486;9.232;2022-11-14T15:06:31;11.50;;;4.60;;
3567;SDS011;1798;48.486;9.232;2022-11-14T15:08:59;8.73;;;4.30;;
3567;SDS011;1798;48.486;9.232;2022-11-14T15:11:27;17.70;;;4.10;;
3567;SDS011;1798;48.486;9.232;2022-11-14T15:13:56;7.13;;;3.83;;
3567;SDS011;1798;48.486;9.232;2022-11-14T15:16:23;11.50;;;4.90;;
3567;SDS011;1798;48.486;9.232;2022-11-14T15:18:51;8.57;;;4.93;;
3567;SDS011;1798;48.486;9.232;2022-11-14T15:21:24;22.67;;;4.90;;
3567;SDS011;1798;48.486;9.232;2022-11-14T15:23:59;9.83;;;5.23;;
3567;SDS011;1798;48.486;9.232;2022-11-14T15:26:29;9.37;;;4.70;;
3567;SDS011;1798;48.486;9.232;2022-11-14T15:29:06;32.90;;;5.23;;
3567;SDS011;1798;48.486;9.232;2022-11-14T15:31:36;9.50;;;4.80;;
3567;SDS011;1798;48.486;9.232;2022-11-14T15:34:04;11.90;;;4.40;;
3567;SDS011;1798;48.486;9.232;2022-11-14T15:36:34;9.87;;;4.23;;
3567;SDS011;1798;48.486;9.232;2022-11-14T15:39:03;10.63;;;5.10;;
3567;SDS011;1798;48.486;9.232;2022-11-14T15:41:32;8.50;;;4.60;;
3567;SDS011;1798;48.486;9.232;2022-11-14T15:43:59;12.47;;;5.10;;
3567;SDS011;1798;48.486;9.232;2022-11-14T15:46:47;7.50;;;3.97;;
3567;SDS011;1798;48.486;9.232;2022-11-14T15:49:21;14.20;;;4.53;;
3567;SDS011;1798;48.486;9.232;2022-11-14T15:51:51;11.47;;;4.80;;